Time;durP1;ratioP1;P1;durP2;ratioP2;P2;SDS_P1;SDS_P2;PMS_P1;PMS_P2;Temp;Humidity;BMP_temperature;BMP_pressure;BME280_temperature;BME280_humidity;BME280_pressure;Samples;Min_cycle;Max_cycle;Signal;HPM_P1;HPM_P2
2021/08/14 00:01:13;;;;;;;;;;;;;;;21.44;51.95;101438.03;5109692;28;19954;-61
2021/08/14 00:03:41;;;;;;;;;;;;;;;21.43;51.93;101435.44;5102044;28;19924;-57
2021/08/14 00:06:11;;;;;;;;;;;;;;;21.43;51.90;101441.69;5101459;27;19942;-61
2021/08/14 00:08:39;;;;;;;;;;;;;;;21.45;51.76;101434.41;5104863;28;19927;-60
2021/08/14 00:11:08;;;;;;;;;;;;;;;21.46;51.67;101437.94;5105575;28;19924;-58
2021/08/14 00:13:36;;;;;;;;;;;;;;;21.46;51.91;101435.25;5116878;28;19928;-61
2021/08/14 00:16:04;;;;;;;;;;;;;;;21.46;51.72;101435.25;5103078;28;19961;-61
2021/08/14 00:18:32;;;;;;;;;;;;;;;21.45;51.67;101431.69;5106034;27;19934;-60
2021/08/14 00:21:00;;;;;;;;;;;;;;;21.47;51.65;101434.28;5106778;28;20037;-60
2021/08/14 00:23:28;;;;;;;;;;;;;;;21.48;51.54;101430.66;5102912;28;19957;-61
2021/08/14 00:25:57;;;;;;;;;;;;;;;21.47;51.47;101435.19;5108001;28;19977;-59
2021/08/14 00:28:27;;;;;;;;;;;;;;;21.47;51.70;101435.19;5106070;28;19993;-61
2021/08/14 00:30:55;;;;;;;;;;;;;;;21.49;51.74;101430.53;5107382;28;19935;-61
2021/08/14 00:33:23;;;;;;;;;;;;;;;21.48;51.71;101428.81;5103720;28;19962;-61
2021/08/14 00:35:51;;;;;;;;;;;;;;;21.47;51.91;101431.59;5101489;28;19962;-61
2021/08/14 00:38:19;;;;;;;;;;;;;;;21.48;52.14;101423.44;5106661;28;19924;-59
2021/08/14 00:40:47;;;;;;;;;;;;;;;21.48;51.82;101428.81;5107006;28;19931;-58
2021/08/14 00:43:15;;;;;;;;;;;;;;;21.50;52.31;101439.50;5102588;28;19988;-61
2021/08/14 00:45:45;;;;;;;;;;;;;;;21.49;51.78;101435.94;5102792;28;19924;-61
2021/08/14 00:48:33;;;;;;;;;;;;;;;21.49;51.73;101441.31;5107635;28;19924;-60
2021/08/14 00:51:01;;;;;;;;;;;;;;;21.51;51.86;101438.53;5107468;28;19953;-61
2021/08/14 00:53:29;;;;;;;;;;;;;;;21.52;51.70;101438.44;5108318;28;19934;-61
2021/08/14 00:55:57;;;;;;;;;;;;;;;21.52;51.85;101442.94;5106175;28;19949;-60
2021/08/14 00:58:25;;;;;;;;;;;;;;;21.54;51.75;101446.47;5105672;28;19999;-60
2021/08/14 01:00:56;;;;;;;;;;;;;;;21.52;51.58;101443.84;5107377;28;19932;-61
2021/08/14 01:03:24;;;;;;;;;;;;;;;21.53;51.78;101444.69;5105112;28;19946;-60
2021/08/14 01:05:53;;;;;;;;;;;;;;;21.53;51.63;101445.53;5113338;28;19928;-61
2021/08/14 01:08:20;;;;;;;;;;;;;;;21.53;51.79;101442.84;5101557;28;20259;-60
2021/08/14 01:10:48;;;;;;;;;;;;;;;21.55;51.71;101440.97;5106538;28;19923;-61
2021/08/14 01:13:17;;;;;;;;;;;;;;;21.55;51.85;101437.41;5103275;28;19967;-60
2021/08/14 01:15:45;;;;;;;;;;;;;;;21.54;51.91;101436.53;5102355;28;19923;-62
2021/08/14 01:18:16;;;;;;;;;;;;;;;21.55;51.95;101448.16;5100080;28;19967;-61
2021/08/14 01:20:44;;;;;;;;;;;;;;;21.54;51.85;101441.94;5105545;27;20295;-61
2021/08/14 01:23:12;;;;;;;;;;;;;;;21.54;51.66;101438.38;5105488;28;19938;-60
2021/08/14 01:25:40;;;;;;;;;;;;;;;21.55;51.94;101434.69;5105837;28;19949;-62
2021/08/14 01:28:10;;;;;;;;;;;;;;;21.55;51.89;101440.09;5103139;28;20507;-58
2021/08/14 01:30:38;;;;;;;;;;;;;;;21.56;51.96;101433.75;5094137;28;20058;-61
2021/08/14 01:33:09;;;;;;;;;;;;;;;21.58;51.82;101436.34;5104372;28;19930;-60
2021/08/14 01:35:38;;;;;;;;;;;;;;;21.57;51.95;101437.31;5108615;28;19924;-61
2021/08/14 01:38:09;;;;;;;;;;;;;;;21.56;51.96;101428.38;5106498;28;19932;-61
2021/08/14 01:40:36;;;;;;;;;;;;;;;21.55;51.86;101424.81;5105628;28;19924;-60
2021/08/14 01:43:05;;;;;;;;;;;;;;;21.57;51.98;101424.72;5102015;28;19935;-61
2021/08/14 01:45:34;;;;;;;;;;;;;;;21.56;52.23;101422.97;5096395;28;19939;-60
2021/08/14 01:48:03;;;;;;;;;;;;;;;21.57;52.05;101422.03;5103075;28;19928;-61
2021/08/14 01:50:30;;;;;;;;;;;;;;;21.59;52.02;101424.63;5110229;28;20034;-61
2021/08/14 01:52:59;;;;;;;;;;;;;;;21.58;52.23;101417.50;5102500;28;19928;-60
2021/08/14 01:55:26;;;;;;;;;;;;;;;21.58;52.29;101421.06;5103369;28;19936;-61
2021/08/14 01:57:54;;;;;;;;;;;;;;;21.58;52.30;101423.75;5104214;28;19970;-61
2021/08/14 02:00:22;;;;;;;;;;;;;;;21.58;52.58;101423.75;5101839;28;19928;-61
2021/08/14 02:02:52;;;;;;;;;;;;;;;21.59;52.53;101416.53;5111042;28;20011;-61
2021/08/14 02:05:20;;;;;;;;;;;;;;;21.59;52.56;101417.41;5102366;28;19928;-61
2021/08/14 02:07:48;;;;;;;;;;;;;;;21.59;52.62;101409.34;5105021;28;19932;-61
2021/08/14 02:10:16;;;;;;;;;;;;;;;21.59;52.65;101406.66;5107300;28;19924;-61
2021/08/14 02:12:44;;;;;;;;;;;;;;;21.60;52.45;101413.75;5094182;28;19924;-60
2021/08/14 02:15:13;;;;;;;;;;;;;;;21.60;52.51;101408.34;5103466;28;19981;-61
2021/08/14 02:17:41;;;;;;;;;;;;;;;21.61;52.55;101420.00;5112087;28;19976;-61
2021/08/14 02:20:11;;;;;;;;;;;;;;;21.61;52.54;101414.63;5112921;28;19950;-61
2021/08/14 02:22:39;;;;;;;;;;;;;;;21.60;52.25;101411.06;5102028;28;19939;-64
2021/08/14 02:25:07;;;;;;;;;;;;;;;21.61;52.30;101420.00;5106370;28;19954;-60
2021/08/14 02:27:35;;;;;;;;;;;;;;;21.62;52.01;101419.06;5098733;28;19932;-61
2021/08/14 02:30:05;;;;;;;;;;;;;;;21.61;52.14;101412.78;5108745;28;20446;-59
2021/08/14 02:32:33;;;;;;;;;;;;;;;21.62;52.18;101416.38;5108342;28;19935;-60
2021/08/14 02:35:01;;;;;;;;;;;;;;;21.62;52.59;101410.97;5111355;28;19977;-60
2021/08/14 02:37:30;;;;;;;;;;;;;;;21.61;52.46;101404.72;5104774;28;19963;-60
2021/08/14 02:39:58;;;;;;;;;;;;;;;21.61;52.10;101410.09;5104780;28;19940;-61
2021/08/14 02:42:26;;;;;;;;;;;;;;;21.61;52.13;101393.09;5101748;28;19941;-61
2021/08/14 02:44:54;;;;;;;;;;;;;;;21.62;52.56;101392.13;5109986;28;19984;-61
2021/08/14 02:47:22;;;;;;;;;;;;;;;21.62;52.19;101387.59;5110742;28;19930;-60
2021/08/14 02:49:50;;;;;;;;;;;;;;;21.62;52.58;101387.59;5109868;28;19935;-61
2021/08/14 02:52:18;;;;;;;;;;;;;;;21.62;52.58;101382.22;5105179;28;20038;-61
2021/08/14 02:54:47;;;;;;;;;;;;;;;21.63;52.84;101391.16;5101641;28;19924;-60
2021/08/14 02:57:15;;;;;;;;;;;;;;;21.63;52.63;101394.72;5106860;28;19928;-60
2021/08/14 02:59:43;;;;;;;;;;;;;;;21.63;52.89;101391.16;5105331;28;19970;-61
2021/08/14 03:02:11;;;;;;;;;;;;;;;21.63;52.56;101397.41;5107625;28;19932;-60
2021/08/14 03:04:39;;;;;;;;;;;;;;;21.63;52.81;101401.91;5102803;28;19928;-61
2021/08/14 03:07:09;;;;;;;;;;;;;;;21.62;52.51;101398.38;5106347;28;19928;-60
2021/08/14 03:09:37;;;;;;;;;;;;;;;21.63;52.59;101394.72;5107888;28;19953;-61
2021/08/14 03:12:07;;;;;;;;;;;;;;;21.63;52.75;101396.53;5108895;27;19971;-60
2021/08/14 03:14:38;;;;;;;;;;;;;;;21.62;52.53;101393.00;5103298;28;19928;-59
2021/08/14 03:17:06;;;;;;;;;;;;;;;21.63;52.81;101393.84;5110216;28;19928;-59
2021/08/14 03:19:34;;;;;;;;;;;;;;;21.64;52.59;101392.88;5104875;28;19928;-61
2021/08/14 03:22:03;;;;;;;;;;;;;;;21.63;52.40;101392.03;5097939;27;20847;-61
2021/08/14 03:24:31;;;;;;;;;;;;;;;21.64;52.46;101401.84;5107139;27;19928;-61
2021/08/14 03:26:59;;;;;;;;;;;;;;;21.64;52.45;101399.16;5108278;27;19924;-60
2021/08/14 03:29:28;;;;;;;;;;;;;;;21.65;52.68;101394.63;5106895;28;19932;-60
2021/08/14 03:31:56;;;;;;;;;;;;;;;21.66;52.58;101404.44;5109234;28;19931;-61
2021/08/14 03:34:24;;;;;;;;;;;;;;;21.65;52.55;101400.00;5105835;28;19935;-61
2021/08/14 03:36:52;;;;;;;;;;;;;;;21.66;52.71;101393.66;5101220;28;19928;-61
2021/08/14 03:39:20;;;;;;;;;;;;;;;21.66;52.64;101402.59;5106655;28;19928;-61
2021/08/14 03:41:48;;;;;;;;;;;;;;;21.66;52.71;101389.13;5107175;28;19931;-61
2021/08/14 03:44:16;;;;;;;;;;;;;;;21.66;52.77;101397.22;5108175;28;20372;-61
2021/08/14 03:46:45;;;;;;;;;;;;;;;21.65;52.69;101392.78;5106024;28;20848;-61
2021/08/14 03:49:15;;;;;;;;;;;;;;;21.64;52.74;101388.38;5103280;28;19927;-61
2021/08/14 03:51:43;;;;;;;;;;;;;;;21.65;52.15;101406.25;5102704;28;19938;-61
2021/08/14 03:54:11;;;;;;;;;;;;;;;21.65;52.31;101406.25;5107955;28;19931;-61
2021/08/14 03:56:39;;;;;;;;;;;;;;;21.66;52.57;101401.75;5108194;28;19924;-61
2021/08/14 03:59:07;;;;;;;;;;;;;;;21.66;52.54;101401.75;5103462;28;19928;-59
2021/08/14 04:01:34;;;;;;;;;;;;;;;21.66;52.32;101407.13;5101410;28;19926;-61
2021/08/14 04:04:04;;;;;;;;;;;;;;;21.66;52.59;101396.34;5102614;28;19932;-61
2021/08/14 04:06:32;;;;;;;;;;;;;;;21.66;52.60;101397.22;5105791;28;19928;-60
2021/08/14 04:09:00;;;;;;;;;;;;;;;21.66;52.66;101397.22;5101941;28;19931;-61
2021/08/14 04:11:28;;;;;;;;;;;;;;;21.66;52.65;101386.44;5107668;28;19935;-62
2021/08/14 04:13:56;;;;;;;;;;;;;;;21.67;52.44;101404.34;5103596;28;20689;-61
2021/08/14 04:16:24;;;;;;;;;;;;;;;21.67;52.67;101390.00;5102033;28;19991;-61
2021/08/14 04:18:52;;;;;;;;;;;;;;;21.67;52.73;101396.25;5103717;28;19936;-61
2021/08/14 04:21:21;;;;;;;;;;;;;;;21.66;52.70;101397.22;5107057;28;20015;-61
2021/08/14 04:23:49;;;;;;;;;;;;;;;21.67;52.53;101390.00;5104813;28;19928;-61
2021/08/14 04:26:17;;;;;;;;;;;;;;;21.69;52.76;101398.84;5113257;28;20021;-61
2021/08/14 04:28:45;;;;;;;;;;;;;;;21.68;52.72;101408.75;5106993;27;20430;-61
2021/08/14 04:31:13;;;;;;;;;;;;;;;21.68;52.82;101410.56;5106719;28;19963;-61
2021/08/14 04:33:41;;;;;;;;;;;;;;;21.68;52.80;101411.44;5103380;28;19963;-60
2021/08/14 04:36:09;;;;;;;;;;;;;;;21.69;52.77;101410.47;5107606;28;20426;-60
2021/08/14 04:38:38;;;;;;;;;;;;;;;21.69;52.64;101404.22;5104389;28;19946;-61
2021/08/14 04:41:06;;;;;;;;;;;;;;;21.69;52.79;101399.69;5104342;28;19935;-61
2021/08/14 04:43:34;;;;;;;;;;;;;;;21.70;52.66;101397.88;5105107;28;19997;-60
2021/08/14 04:46:03;;;;;;;;;;;;;;;21.70;52.70;101390.66;5102435;28;19957;-61
2021/08/14 04:48:31;;;;;;;;;;;;;;;21.70;52.98;101396.03;5103124;28;19927;-61
2021/08/14 04:50:59;;;;;;;;;;;;;;;21.71;52.50;101407.69;5136987;27;20415;-61
2021/08/14 04:53:26;;;;;;;;;;;;;;;21.70;52.69;101396.03;5104083;28;19992;-61
2021/08/14 04:55:56;;;;;;;;;;;;;;;21.71;52.64;101405.00;5107490;28;19932;-60
2021/08/14 04:58:24;;;;;;;;;;;;;;;21.71;52.60;101407.69;5101063;28;19942;-61
2021/08/14 05:00:52;;;;;;;;;;;;;;;21.73;52.46;101394.97;5096443;28;19959;-60
2021/08/14 05:03:24;;;;;;;;;;;;;;;21.77;52.87;101403.75;5103667;28;19946;-60
2021/08/14 05:05:52;;;;;;;;;;;;;;;21.77;52.98;101409.13;5113064;28;20020;-61
2021/08/14 05:08:20;;;;;;;;;;;;;;;21.77;52.80;101396.50;5100405;28;19928;-60
2021/08/14 05:10:48;;;;;;;;;;;;;;;21.76;52.99;101400.19;5105318;28;20515;-61
2021/08/14 05:13:18;;;;;;;;;;;;;;;21.77;53.17;101399.19;5099562;28;19928;-61
2021/08/14 05:15:45;;;;;;;;;;;;;;;21.78;53.32;101400.94;5097866;28;19969;-62
2021/08/14 05:18:15;;;;;;;;;;;;;;;21.79;53.20;101396.44;5101797;28;20014;-60
2021/08/14 05:20:43;;;;;;;;;;;;;;;21.79;53.17;101393.75;5099593;28;19927;-61
2021/08/14 05:23:13;;;;;;;;;;;;;;;21.79;52.86;101391.91;5101199;28;19943;-61
2021/08/14 05:25:41;;;;;;;;;;;;;;;21.80;52.70;101395.44;5102938;28;19932;-60
2021/08/14 05:28:09;;;;;;;;;;;;;;;21.81;53.07;101402.56;5097064;28;19931;-61
2021/08/14 05:30:39;;;;;;;;;;;;;;;21.80;53.44;101388.25;5096853;28;19936;-61
2021/08/14 05:33:07;;;;;;;;;;;;;;;21.81;53.88;101392.66;5100805;28;19938;-59
2021/08/14 05:35:35;;;;;;;;;;;;;;;21.83;53.34;101392.56;5103082;28;19949;-61
2021/08/14 05:38:03;;;;;;;;;;;;;;;21.85;52.50;101390.63;5098900;28;20007;-62
2021/08/14 05:40:31;;;;;;;;;;;;;;;21.85;53.54;101388.81;5102327;28;19927;-62
2021/08/14 05:42:59;;;;;;;;;;;;;;;21.88;53.44;101393.16;5097667;28;20395;-61
2021/08/14 05:45:27;;;;;;;;;;;;;;;21.89;53.64;101395.72;5097859;28;20009;-61
2021/08/14 05:47:56;;;;;;;;;;;;;;;21.90;53.12;101391.19;5101882;28;19932;-61
2021/08/14 05:50:24;;;;;;;;;;;;;;;21.91;53.22;101390.25;5101281;28;19928;-62
2021/08/14 05:52:52;;;;;;;;;;;;;;;21.93;52.40;101395.53;5098259;28;20019;-62
2021/08/14 05:55:21;;;;;;;;;;;;;;;21.92;53.15;101386.59;5097537;28;19938;-61
2021/08/14 05:57:49;;;;;;;;;;;;;;;21.93;52.55;101396.41;5099432;28;19935;-62
2021/08/14 06:00:17;;;;;;;;;;;;;;;21.95;53.44;101401.69;5101895;28;19949;-61
2021/08/14 06:02:45;;;;;;;;;;;;;;;21.95;52.16;101396.31;5098971;28;19928;-61
2021/08/14 06:05:15;;;;;;;;;;;;;;;21.94;53.23;101392.72;5116190;28;19927;-60
2021/08/14 06:07:43;;;;;;;;;;;;;;;21.95;52.47;101388.22;5108755;28;20003;-61
2021/08/14 06:10:12;;;;;;;;;;;;;;;21.95;53.21;101381.00;5100428;28;19932;-61
2021/08/14 06:12:40;;;;;;;;;;;;;;;21.96;53.41;101376.47;5102711;28;19960;-60
2021/08/14 06:15:08;;;;;;;;;;;;;;;21.96;52.72;101374.66;5105295;28;19928;-60
2021/08/14 06:17:38;;;;;;;;;;;;;;;21.98;53.18;101369.16;5106674;28;20814;-61
2021/08/14 06:20:06;;;;;;;;;;;;;;;21.98;52.67;101370.00;5102572;28;20282;-60
2021/08/14 06:22:37;;;;;;;;;;;;;;;21.99;53.65;101366.34;5098942;28;20048;-61
2021/08/14 06:25:06;;;;;;;;;;;;;;;22.00;53.31;101357.31;5104219;28;19932;-61
2021/08/14 06:27:34;;;;;;;;;;;;;;;22.01;53.37;101366.25;5105398;28;20318;-60
2021/08/14 06:30:03;;;;;;;;;;;;;;;22.01;52.67;101366.25;5104959;27;19928;-60
2021/08/14 06:32:31;;;;;;;;;;;;;;;22.02;53.50;101366.16;5106541;28;20439;-61
2021/08/14 06:34:59;;;;;;;;;;;;;;;22.04;53.10;101366.06;5104121;28;19932;-61
2021/08/14 06:37:27;;;;;;;;;;;;;;;22.03;53.09;101370.56;5101954;28;19954;-60
2021/08/14 06:39:56;;;;;;;;;;;;;;;22.05;53.28;101370.50;5098348;28;19981;-57
2021/08/14 06:42:24;;;;;;;;;;;;;;;22.07;52.81;101371.25;5103334;28;19932;-61
2021/08/14 06:44:52;;;;;;;;;;;;;;;22.08;52.61;101374.81;5100987;28;19991;-59
2021/08/14 06:47:20;;;;;;;;;;;;;;;22.08;52.97;101364.88;5103539;28;19932;-61
2021/08/14 06:49:48;;;;;;;;;;;;;;;22.11;53.46;101372.75;5103296;28;19924;-59
2021/08/14 06:52:16;;;;;;;;;;;;;;;22.14;53.44;101369.00;5094637;28;19939;-61
2021/08/14 06:54:44;;;;;;;;;;;;;;;22.14;54.64;101375.28;5101971;28;19939;-60
2021/08/14 06:57:13;;;;;;;;;;;;;;;22.16;53.50;101380.56;5105060;28;19928;-59
2021/08/14 06:59:42;;;;;;;;;;;;;;;22.15;53.20;101376.97;5104560;28;19938;-57
2021/08/14 07:02:10;;;;;;;;;;;;;;;22.17;53.75;101383.13;5110953;28;20417;-58
2021/08/14 07:04:38;;;;;;;;;;;;;;;22.18;53.59;101389.38;5103587;28;19927;-60
2021/08/14 07:07:06;;;;;;;;;;;;;;;22.17;53.75;101382.28;5098527;28;19959;-59
2021/08/14 07:09:36;;;;;;;;;;;;;;;22.16;53.47;101380.56;5105673;28;20014;-59
2021/08/14 07:12:05;;;;;;;;;;;;;;;22.14;53.85;101377.09;5110873;28;20008;-59
2021/08/14 07:14:34;;;;;;;;;;;;;;;22.14;54.15;101383.34;5102569;28;19935;-59
2021/08/14 07:17:03;;;;;;;;;;;;;;;22.13;53.90;101376.22;5100310;28;20375;-59
2021/08/14 07:19:31;;;;;;;;;;;;;;;22.13;54.21;101378.94;5097903;28;20468;-59
2021/08/14 07:21:59;;;;;;;;;;;;;;;22.12;53.63;101373.66;5097583;28;20451;-59
2021/08/14 07:24:27;;;;;;;;;;;;;;;22.12;54.27;101376.34;5112523;28;19935;-56
2021/08/14 07:26:57;;;;;;;;;;;;;;;22.10;53.85;101376.41;5115518;28;20034;-59
2021/08/14 07:29:25;;;;;;;;;;;;;;;22.13;53.79;101383.44;5108366;27;19938;-59
2021/08/14 07:31:54;;;;;;;;;;;;;;;22.13;53.40;101373.53;5105470;28;20395;-59
2021/08/14 07:34:22;;;;;;;;;;;;;;;22.14;53.51;101367.19;5101313;28;19928;-54
2021/08/14 07:36:50;;;;;;;;;;;;;;;22.14;53.30;101363.59;5110513;28;19928;-59
2021/08/14 07:39:18;;;;;;;;;;;;;;;22.14;53.61;101361.78;5110365;28;20001;-59
2021/08/14 07:41:46;;;;;;;;;;;;;;;22.12;53.80;101358.34;5107845;28;19928;-59
2021/08/14 07:44:15;;;;;;;;;;;;;;;22.12;53.90;101366.41;5104259;28;19932;-57
2021/08/14 07:46:48;;;;;;;;;;;;;;;22.12;53.38;101365.56;5102085;28;20375;-59
2021/08/14 07:49:17;;;;;;;;;;;;;;;22.11;53.70;101364.69;5109885;28;19931;-59
2021/08/14 07:51:45;;;;;;;;;;;;;;;22.10;53.56;101360.25;5104988;28;20284;-59
2021/08/14 07:54:13;;;;;;;;;;;;;;;22.11;53.43;101361.97;5103374;28;19924;-58
2021/08/14 07:56:41;;;;;;;;;;;;;;;22.12;53.41;101354.78;5111976;28;20317;-59
2021/08/14 07:59:09;;;;;;;;;;;;;;;22.12;52.77;101354.78;5104644;28;19924;-59
2021/08/14 08:01:37;;;;;;;;;;;;;;;22.10;52.84;101352.16;5111498;28;20019;-59
2021/08/14 08:04:05;;;;;;;;;;;;;;;22.10;53.79;101348.63;5114431;28;19939;-59
2021/08/14 08:06:35;;;;;;;;;;;;;;;22.10;53.97;101354.84;5114061;28;19924;-58
2021/08/14 08:09:03;;;;;;;;;;;;;;;22.10;52.58;101349.47;5103520;28;19947;-59
2021/08/14 08:11:30;;;;;;;;;;;;;;;22.10;52.71;101348.63;5103821;28;20758;-59
2021/08/14 08:13:58;;;;;;;;;;;;;;;22.08;52.33;101351.41;5103286;28;19955;-57
2021/08/14 08:16:31;;;;;;;;;;;;;;;22.09;53.50;101347.78;5103646;28;19927;-58
2021/08/14 08:18:59;;;;;;;;;;;;;;;22.08;52.56;101350.56;5110109;28;20026;-57
2021/08/14 08:21:28;;;;;;;;;;;;;;;22.07;52.66;101349.69;5103748;28;19932;-59
2021/08/14 08:23:57;;;;;;;;;;;;;;;22.09;53.38;101339.69;5108617;28;19935;-59
2021/08/14 08:26:25;;;;;;;;;;;;;;;22.12;53.72;101344.00;5103342;28;19932;-59
2021/08/14 08:28:53;;;;;;;;;;;;;;;22.15;53.54;101338.41;5095857;28;20280;-58
2021/08/14 08:31:22;;;;;;;;;;;;;;;22.17;53.53;101331.94;5104896;28;19959;-59
2021/08/14 08:33:50;;;;;;;;;;;;;;;22.19;53.85;101330.03;5118127;28;19935;-59
2021/08/14 08:36:17;;;;;;;;;;;;;;;22.20;53.03;101331.72;5109650;28;19970;-59
2021/08/14 08:38:45;;;;;;;;;;;;;;;22.23;53.28;101322.56;5104473;28;19940;-58
2021/08/14 08:41:17;;;;;;;;;;;;;;;22.24;53.70;101332.38;5102990;28;19973;-59
2021/08/14 08:43:45;;;;;;;;;;;;;;;22.24;52.68;101327.00;5100569;28;19955;-59
2021/08/14 08:46:13;;;;;;;;;;;;;;;22.26;52.33;101327.78;5101115;28;19947;-59
2021/08/14 08:48:43;;;;;;;;;;;;;;;22.27;52.82;101329.47;5111903;28;19963;-59
2021/08/14 08:51:12;;;;;;;;;;;;;;;22.28;53.14;101325.81;5103154;28;19935;-59
2021/08/14 08:53:40;;;;;;;;;;;;;;;22.28;53.54;101323.13;5106912;28;19988;-59
2021/08/14 08:56:08;;;;;;;;;;;;;;;22.30;52.79;101317.63;5104503;28;20027;-60
2021/08/14 08:58:37;;;;;;;;;;;;;;;22.32;52.91;101315.72;5097962;28;19928;-58
2021/08/14 09:01:06;;;;;;;;;;;;;;;22.33;53.06;101322.81;5101465;28;19928;-59
2021/08/14 09:03:34;;;;;;;;;;;;;;;22.32;53.43;101313.88;5103268;28;19943;-59
2021/08/14 09:06:02;;;;;;;;;;;;;;;22.33;52.97;101314.75;5113622;28;19992;-59
2021/08/14 09:08:30;;;;;;;;;;;;;;;22.36;52.38;101307.34;5110184;28;19932;-59
2021/08/14 09:11:08;;;;;;;;;;;;;;;22.41;52.31;101306.16;5099639;28;19995;-59
2021/08/14 09:13:39;;;;;;;;;;;;;;;22.42;52.23;101311.44;5103653;28;19928;-58
2021/08/14 09:16:20;;;;;;;;;;;;;;;22.38;52.30;101308.09;5109977;28;19983;-59
2021/08/14 09:18:55;;;;;;;;;;;;;;;22.36;52.30;101304.66;5110744;28;19943;-60
2021/08/14 09:21:29;;;;;;;;;;;;;;;22.37;52.46;101300.13;5108334;28;19928;-58
2021/08/14 09:23:57;;;;;;;;;;;;;;;22.37;52.47;101300.97;5104535;28;19938;-59
2021/08/14 09:26:25;;;;;;;;;;;;;;;22.37;52.32;101306.34;5109063;28;19928;-59
2021/08/14 09:29:05;;;;;;;;;;;;;;;22.38;52.52;101297.31;5104155;28;20000;-55
2021/08/14 09:31:46;;;;;;;;;;;;;;;22.40;52.28;101304.44;5108170;28;19954;-58
2021/08/14 09:34:15;;;;;;;;;;;;;;;22.40;52.28;101305.28;5105290;28;20015;-59
2021/08/14 09:36:42;;;;;;;;;;;;;;;22.40;52.25;101290.97;5107651;28;19928;-59
2021/08/14 09:39:11;;;;;;;;;;;;;;;22.41;52.37;101287.31;5098368;28;19935;-59
2021/08/14 09:41:38;;;;;;;;;;;;;;;22.41;52.24;101288.16;5101723;28;19924;-59
2021/08/14 09:44:15;;;;;;;;;;;;;;;22.42;52.51;101297.09;5101832;28;19972;-56
2021/08/14 09:46:43;;;;;;;;;;;;;;;22.43;52.25;101291.63;5105535;28;19928;-59
2021/08/14 09:49:11;;;;;;;;;;;;;;;22.44;52.42;101292.47;5101821;28;19974;-58
2021/08/14 09:51:39;;;;;;;;;;;;;;;22.46;52.63;101288.69;5095494;28;19928;-59
2021/08/14 09:54:07;;;;;;;;;;;;;;;22.48;52.54;101288.59;5103291;28;19939;-59
2021/08/14 09:56:36;;;;;;;;;;;;;;;22.49;52.36;101288.47;5107638;28;19959;-59
2021/08/14 09:59:05;;;;;;;;;;;;;;;22.49;52.44;101285.78;5112189;28;19953;-59
2021/08/14 10:01:37;;;;;;;;;;;;;;;22.50;52.38;101281.28;5103589;28;19935;-57
2021/08/14 10:04:06;;;;;;;;;;;;;;;22.54;52.29;101286.31;5097709;28;19995;-59
2021/08/14 10:06:34;;;;;;;;;;;;;;;22.55;52.18;101288.06;5109003;28;19928;-58
2021/08/14 10:09:03;;;;;;;;;;;;;;;22.59;51.98;101277.06;5105219;28;19970;-59
2021/08/14 10:11:30;;;;;;;;;;;;;;;22.60;51.84;101279.66;5104170;28;19954;-59
2021/08/14 10:13:58;;;;;;;;;;;;;;;22.64;51.73;101283.00;5107224;28;19992;-59
2021/08/14 10:16:27;;;;;;;;;;;;;;;22.60;51.72;101276.97;5100068;28;19923;-59
2021/08/14 10:18:57;;;;;;;;;;;;;;;22.57;51.69;101279.00;5100453;28;19956;-58
2021/08/14 10:21:26;;;;;;;;;;;;;;;22.54;51.72;101270.16;5100885;28;19932;-59
2021/08/14 10:23:56;;;;;;;;;;;;;;;22.55;51.75;101263.81;5114177;28;20328;-60
2021/08/14 10:26:28;;;;;;;;;;;;;;;22.59;51.69;101268.97;5100560;28;19999;-58
2021/08/14 10:28:57;;;;;;;;;;;;;;;22.61;51.71;101257.09;5101932;28;19928;-58
2021/08/14 10:31:45;;;;;;;;;;;;;;;22.63;51.51;101265.97;5100773;28;19927;-59
2021/08/14 10:34:30;;;;;;;;;;;;;;;22.64;51.51;101272.22;5110081;28;19928;-59
2021/08/14 10:36:59;;;;;;;;;;;;;;;22.64;51.39;101264.13;5102947;28;19948;-59
2021/08/14 10:39:28;;;;;;;;;;;;;;;22.67;51.25;101253.97;5101315;28;19936;-59
2021/08/14 10:41:57;;;;;;;;;;;;;;;22.65;51.32;101250.53;5100992;28;19948;-59
2021/08/14 10:44:42;;;;;;;;;;;;;;;22.66;51.57;101259.50;5099673;28;19950;-59
2021/08/14 10:47:31;;;;;;;;;;;;;;;22.67;51.42;101255.84;5102353;28;19928;-60
2021/08/14 10:50:01;;;;;;;;;;;;;;;22.62;51.65;101248.06;5099555;28;19928;-59
2021/08/14 10:52:32;;;;;;;;;;;;;;;22.64;51.36;101258.72;5110655;28;19934;-59
2021/08/14 10:55:09;;;;;;;;;;;;;;;22.64;51.19;101262.31;5109182;28;19969;-59
2021/08/14 10:57:44;;;;;;;;;;;;;;;22.66;51.24;101251.41;5104863;28;20017;-59
2021/08/14 11:00:16;;;;;;;;;;;;;;;22.68;50.95;101249.44;5097346;28;20449;-59
2021/08/14 11:03:04;;;;;;;;;;;;;;;22.68;51.16;101253.03;5106013;28;19931;-59
2021/08/14 11:05:34;;;;;;;;;;;;;;;22.68;51.07;101246.75;5106682;28;19971;-59
2021/08/14 11:08:02;;;;;;;;;;;;;;;22.66;50.79;101237.91;5117951;28;19959;-59
2021/08/14 11:10:31;;;;;;;;;;;;;;;22.66;50.63;101224.44;5112556;28;19927;-59
2021/08/14 11:12:59;;;;;;;;;;;;;;;22.66;50.89;101221.75;5109929;28;20363;-60
2021/08/14 11:15:30;;;;;;;;;;;;;;;22.67;51.21;101232.41;5098605;28;19943;-59
2021/08/14 11:17:59;;;;;;;;;;;;;;;22.66;50.74;101230.69;5108301;28;19931;-60
2021/08/14 11:20:39;;;;;;;;;;;;;;;22.66;50.87;101224.44;5108625;28;19931;-58
2021/08/14 11:23:23;;;;;;;;;;;;;;;22.65;51.00;101214.63;5117037;28;19963;-59
2021/08/14 11:25:51;;;;;;;;;;;;;;;22.63;50.75;101221.97;5106672;28;19924;-60
2021/08/14 11:28:20;;;;;;;;;;;;;;;22.62;50.73;101220.25;5103109;28;19985;-58
2021/08/14 11:30:49;;;;;;;;;;;;;;;22.59;50.84;101220.44;5108668;28;19928;-59
2021/08/14 11:33:22;;;;;;;;;;;;;;;22.61;50.73;101221.22;5104555;28;19928;-57
2021/08/14 11:36:00;;;;;;;;;;;;;;;22.61;50.78;101221.22;5109087;28;19927;-59
2021/08/14 11:38:32;;;;;;;;;;;;;;;22.61;50.86;101219.34;5105005;28;20364;-59
2021/08/14 11:41:02;;;;;;;;;;;;;;;22.65;50.73;101209.22;5112641;28;19924;-59
2021/08/14 11:43:37;;;;;;;;;;;;;;;22.68;50.97;101209.88;5109400;28;20004;-59
2021/08/14 11:46:06;;;;;;;;;;;;;;;22.70;50.84;101218.69;5108929;28;19931;-60
2021/08/14 11:48:40;;;;;;;;;;;;;;;22.71;50.83;101204.25;5117778;28;19963;-58
2021/08/14 11:51:20;;;;;;;;;;;;;;;22.71;50.56;101204.25;5104012;28;19928;-59
2021/08/14 11:53:48;;;;;;;;;;;;;;;22.71;50.67;101209.66;5099513;28;20087;-58
2021/08/14 11:56:17;;;;;;;;;;;;;;;22.70;50.72;101209.75;5110951;28;19923;-59
2021/08/14 11:58:45;;;;;;;;;;;;;;;22.69;50.74;101197.25;5103084;28;19999;-59
2021/08/14 12:01:13;;;;;;;;;;;;;;;22.70;50.53;101201.69;5105894;28;19928;-59
2021/08/14 12:03:41;;;;;;;;;;;;;;;22.70;50.70;101199.81;5103305;28;19973;-59
2021/08/14 12:06:11;;;;;;;;;;;;;;;22.70;50.76;101196.28;5112267;28;19981;-59
2021/08/14 12:08:41;;;;;;;;;;;;;;;22.68;50.75;101198.22;5101533;28;19996;-59
2021/08/14 12:11:11;;;;;;;;;;;;;;;22.68;51.02;101198.22;5112667;28;19931;-59
2021/08/14 12:13:39;;;;;;;;;;;;;;;22.68;50.65;101200.91;5103902;28;19928;-59
2021/08/14 12:16:11;;;;;;;;;;;;;;;22.68;50.62;101193.69;5104520;28;19954;-59
2021/08/14 12:18:40;;;;;;;;;;;;;;;22.67;50.46;101185.72;5103950;28;20212;-59
2021/08/14 12:21:08;;;;;;;;;;;;;;;22.65;50.36;101193.06;5100584;28;19970;-59
2021/08/14 12:23:37;;;;;;;;;;;;;;;22.64;50.91;101191.31;5098150;28;19934;-57
2021/08/14 12:26:07;;;;;;;;;;;;;;;22.65;50.56;101184.97;5102547;28;19928;-59
2021/08/14 12:28:35;;;;;;;;;;;;;;;22.65;50.32;101188.50;5106650;28;19928;-60
2021/08/14 12:31:14;;;;;;;;;;;;;;;22.66;50.44;101181.31;5102503;28;19924;-59
2021/08/14 12:33:47;;;;;;;;;;;;;;;22.66;50.58;101181.31;5110290;28;19959;-59
2021/08/14 12:36:15;;;;;;;;;;;;;;;22.67;50.81;101172.25;5102764;28;19935;-59
2021/08/14 12:38:47;;;;;;;;;;;;;;;22.67;50.79;101172.25;5106056;28;19928;-59
2021/08/14 12:41:17;;;;;;;;;;;;;;;22.68;51.00;101173.94;5119727;28;19946;-59
2021/08/14 12:43:45;;;;;;;;;;;;;;;22.67;50.74;101175.78;5102297;28;20013;-59
2021/08/14 12:46:18;;;;;;;;;;;;;;;22.65;50.80;101171.47;5110043;28;20079;-59